KBDR

Igor I Sikorsky Memorial Airport

Bridgeport, Connecticut, USA
METAR KBDR 220552Z AUTO 32006KT 10SM CLR 08/M07 A3035 RMK AO2 SLP276 T00831072 10144 20083 50007
Observed Flight Rules
Apr-22 @ 05:52 UTC (an hour ago) Visual Flight Rules
Wind Visibility Clouds
320° at 6 knots 10 miles
  • Clear skies
Temperatures Readings
Current 8°C / 46°F
Dewpoint -7°C / 19°F
Humidity 34%
Altimeter 30.35" Hg
Pressure 1027.6 hPa
Elevation 7
METAR KBDR 220552Z AUTO 32006KT 10SM CLR 08/M07 A3035 RMK AO2 SLP276 T00831072 10144 20083 50007
Observed Flight Rules
Apr-22 @ 05:52 UTC
(an hour ago)
VFR
Wind Visibility
320° at 6 knots 10 miles
Clouds
  • Clear skies
Temperature Dewpoint
8°C / 46°F -7°C / 19°F
Humidity Altimeter Pressure
34% 30.35" Hg 1027.6 hPa